sensor_id;sensor_type;location;lat;lon;timestamp;temperature;humidity
9175;DHT22;54374;50.196;8.050;2022-08-06T00:01:55;12.10;99.90
9175;DHT22;54374;50.196;8.050;2022-08-06T00:04:22;12.10;99.90
9175;DHT22;54374;50.196;8.050;2022-08-06T00:06:49;12.20;99.90
9175;DHT22;54374;50.196;8.050;2022-08-06T00:09:17;12.10;99.90
9175;DHT22;54374;50.196;8.050;2022-08-06T00:11:47;12.00;99.90
9175;DHT22;54374;50.196;8.050;2022-08-06T00:14:15;12.00;99.90
9175;DHT22;54374;50.196;8.050;2022-08-06T00:16:42;12.00;99.90
9175;DHT22;54374;50.196;8.050;2022-08-06T00:19:12;12.00;99.90
9175;DHT22;54374;50.196;8.050;2022-08-06T00:21:39;12.00;99.90
9175;DHT22;54374;50.196;8.050;2022-08-06T00:24:07;12.00;99.90
9175;DHT22;54374;50.196;8.050;2022-08-06T00:26:34;12.00;99.90
9175;DHT22;54374;50.196;8.050;2022-08-06T00:29:03;11.90;99.90
9175;DHT22;54374;50.196;8.050;2022-08-06T00:31:32;11.60;99.90
9175;DHT22;54374;50.196;8.050;2022-08-06T00:33:59;11.50;99.90
9175;DHT22;54374;50.196;8.050;2022-08-06T00:36:29;11.60;99.90
9175;DHT22;54374;50.196;8.050;2022-08-06T00:38:57;11.60;99.90
9175;DHT22;54374;50.196;8.050;2022-08-06T00:41:25;11.60;99.90
9175;DHT22;54374;50.196;8.050;2022-08-06T00:43:52;11.60;99.90
9175;DHT22;54374;50.196;8.050;2022-08-06T00:46:19;11.60;99.90
9175;DHT22;54374;50.196;8.050;2022-08-06T00:48:47;11.50;99.90
9175;DHT22;54374;50.196;8.050;2022-08-06T00:51:14;11.50;99.90
9175;DHT22;54374;50.196;8.050;2022-08-06T00:53:42;11.50;99.90
9175;DHT22;54374;50.196;8.050;2022-08-06T00:56:09;11.50;99.90
9175;DHT22;54374;50.196;8.050;2022-08-06T00:58:36;11.40;99.90
9175;DHT22;54374;50.196;8.050;2022-08-06T01:01:03;11.20;99.90
9175;DHT22;54374;50.196;8.050;2022-08-06T01:03:30;11.10;99.90
9175;DHT22;54374;50.196;8.050;2022-08-06T01:05:59;11.00;99.90
9175;DHT22;54374;50.196;8.050;2022-08-06T01:08:26;10.90;99.90
9175;DHT22;54374;50.196;8.050;2022-08-06T01:10:53;10.90;99.90
9175;DHT22;54374;50.196;8.050;2022-08-06T01:13:20;10.90;99.90
9175;DHT22;54374;50.196;8.050;2022-08-06T01:15:51;10.90;99.90
9175;DHT22;54374;50.196;8.050;2022-08-06T01:18:25;11.00;99.90
9175;DHT22;54374;50.196;8.050;2022-08-06T01:21:07;11.00;99.90
9175;DHT22;54374;50.196;8.050;2022-08-06T01:23:51;11.10;99.90
9175;DHT22;54374;50.196;8.050;2022-08-06T01:26:34;11.10;99.90
9175;DHT22;54374;50.196;8.050;2022-08-06T01:29:05;10.90;99.90
9175;DHT22;54374;50.196;8.050;2022-08-06T01:31:37;10.80;99.90
9175;DHT22;54374;50.196;8.050;2022-08-06T01:34:09;10.70;99.90
9175;DHT22;54374;50.196;8.050;2022-08-06T01:36:40;10.60;99.90
9175;DHT22;54374;50.196;8.050;2022-08-06T01:39:11;10.60;99.90
9175;DHT22;54374;50.196;8.050;2022-08-06T01:41:43;10.50;99.90
9175;DHT22;54374;50.196;8.050;2022-08-06T01:44:15;10.50;99.90
9175;DHT22;54374;50.196;8.050;2022-08-06T01:46:46;10.60;99.90
9175;DHT22;54374;50.196;8.050;2022-08-06T01:49:26;10.60;99.90
9175;DHT22;54374;50.196;8.050;2022-08-06T01:51:56;10.60;99.90
9175;DHT22;54374;50.196;8.050;2022-08-06T01:54:24;10.70;99.90
9175;DHT22;54374;50.196;8.050;2022-08-06T01:56:57;10.70;99.90
9175;DHT22;54374;50.196;8.050;2022-08-06T01:59:32;10.70;99.90
9175;DHT22;54374;50.196;8.050;2022-08-06T02:02:02;10.70;99.90
9175;DHT22;54374;50.196;8.050;2022-08-06T02:04:37;10.70;99.90
9175;DHT22;54374;50.196;8.050;2022-08-06T02:07:07;10.70;99.90
9175;DHT22;54374;50.196;8.050;2022-08-06T02:09:35;10.70;99.90
9175;DHT22;54374;50.196;8.050;2022-08-06T02:12:06;10.50;99.90
9175;DHT22;54374;50.196;8.050;2022-08-06T02:14:39;10.40;99.90
9175;DHT22;54374;50.196;8.050;2022-08-06T02:17:07;10.20;99.90
9175;DHT22;54374;50.196;8.050;2022-08-06T02:19:36;10.20;99.90
9175;DHT22;54374;50.196;8.050;2022-08-06T02:22:04;10.20;99.90
9175;DHT22;54374;50.196;8.050;2022-08-06T02:24:33;10.20;99.90
9175;DHT22;54374;50.196;8.050;2022-08-06T02:27:01;10.30;99.90
9175;DHT22;54374;50.196;8.050;2022-08-06T02:29:31;10.30;99.90
9175;DHT22;54374;50.196;8.050;2022-08-06T02:32:01;10.20;99.90
9175;DHT22;54374;50.196;8.050;2022-08-06T02:34:28;10.10;99.90
9175;DHT22;54374;50.196;8.050;2022-08-06T02:36:57;10.20;99.90
9175;DHT22;54374;50.196;8.050;2022-08-06T02:39:27;10.10;99.90
9175;DHT22;54374;50.196;8.050;2022-08-06T02:42:01;10.10;99.90
9175;DHT22;54374;50.196;8.050;2022-08-06T02:44:38;10.10;99.90
9175;DHT22;54374;50.196;8.050;2022-08-06T02:47:11;10.10;99.90
9175;DHT22;54374;50.196;8.050;2022-08-06T02:49:45;10.20;99.90
9175;DHT22;54374;50.196;8.050;2022-08-06T02:52:16;10.20;99.90
9175;DHT22;54374;50.196;8.050;2022-08-06T02:54:48;10.10;99.90
9175;DHT22;54374;50.196;8.050;2022-08-06T02:57:21;10.00;99.90
9175;DHT22;54374;50.196;8.050;2022-08-06T02:59:53;10.00;99.90
9175;DHT22;54374;50.196;8.050;2022-08-06T03:02:24;9.90;99.90
9175;DHT22;54374;50.196;8.050;2022-08-06T03:04:53;10.00;99.90
9175;DHT22;54374;50.196;8.050;2022-08-06T03:07:23;9.90;99.90
9175;DHT22;54374;50.196;8.050;2022-08-06T03:09:52;9.90;99.90
9175;DHT22;54374;50.196;8.050;2022-08-06T03:12:20;9.80;99.90
9175;DHT22;54374;50.196;8.050;2022-08-06T03:14:48;9.60;99.90
9175;DHT22;54374;50.196;8.050;2022-08-06T03:17:16;9.50;99.90
9175;DHT22;54374;50.196;8.050;2022-08-06T03:19:46;9.40;99.90
9175;DHT22;54374;50.196;8.050;2022-08-06T03:22:16;9.40;99.90
9175;DHT22;54374;50.196;8.050;2022-08-06T03:24:45;9.40;99.90
9175;DHT22;54374;50.196;8.050;2022-08-06T03:27:16;9.40;99.90
9175;DHT22;54374;50.196;8.050;2022-08-06T03:29:44;9.40;99.90
9175;DHT22;54374;50.196;8.050;2022-08-06T03:32:12;9.20;99.90
9175;DHT22;54374;50.196;8.050;2022-08-06T03:34:40;9.30;99.90
9175;DHT22;54374;50.196;8.050;2022-08-06T03:37:12;9.40;99.90
9175;DHT22;54374;50.196;8.050;2022-08-06T03:39:41;9.30;99.90
9175;DHT22;54374;50.196;8.050;2022-08-06T03:42:09;9.30;99.90
9175;DHT22;54374;50.196;8.050;2022-08-06T03:44:36;9.20;99.90
9175;DHT22;54374;50.196;8.050;2022-08-06T03:47:06;9.10;99.90
9175;DHT22;54374;50.196;8.050;2022-08-06T03:49:36;9.10;99.90
9175;DHT22;54374;50.196;8.050;2022-08-06T03:52:05;9.10;99.90
9175;DHT22;54374;50.196;8.050;2022-08-06T03:54:38;9.00;99.90
9175;DHT22;54374;50.196;8.050;2022-08-06T03:57:11;9.00;99.90
9175;DHT22;54374;50.196;8.050;2022-08-06T03:59:43;9.00;99.90
9175;DHT22;54374;50.196;8.050;2022-08-06T04:02:11;9.10;99.90
9175;DHT22;54374;50.196;8.050;2022-08-06T04:04:39;9.20;99.90
9175;DHT22;54374;50.196;8.050;2022-08-06T04:07:08;9.20;99.90
9175;DHT22;54374;50.196;8.050;2022-08-06T04:09:38;9.10;99.90
9175;DHT22;54374;50.196;8.050;2022-08-06T04:12:06;9.10;99.90
9175;DHT22;54374;50.196;8.050;2022-08-06T04:14:35;9.00;99.90
9175;DHT22;54374;50.196;8.050;2022-08-06T04:17:02;9.00;99.90
9175;DHT22;54374;50.196;8.050;2022-08-06T04:19:31;8.90;99.90
9175;DHT22;54374;50.196;8.050;2022-08-06T04:21:59;8.90;99.90
9175;DHT22;54374;50.196;8.050;2022-08-06T04:24:27;8.80;99.90
9175;DHT22;54374;50.196;8.050;2022-08-06T04:26:57;8.80;99.90
9175;DHT22;54374;50.196;8.050;2022-08-06T04:29:25;8.90;99.90
9175;DHT22;54374;50.196;8.050;2022-08-06T04:31:53;8.90;99.90
9175;DHT22;54374;50.196;8.050;2022-08-06T04:34:23;8.70;99.90
9175;DHT22;54374;50.196;8.050;2022-08-06T04:36:51;8.70;99.90
9175;DHT22;54374;50.196;8.050;2022-08-06T04:39:20;8.70;99.90
9175;DHT22;54374;50.196;8.050;2022-08-06T04:41:48;8.60;99.90
9175;DHT22;54374;50.196;8.050;2022-08-06T04:44:17;8.70;99.90
9175;DHT22;54374;50.196;8.050;2022-08-06T04:46:45;8.80;99.90
9175;DHT22;54374;50.196;8.050;2022-08-06T04:49:14;8.90;99.90
9175;DHT22;54374;50.196;8.050;2022-08-06T04:51:45;8.90;99.90
9175;DHT22;54374;50.196;8.050;2022-08-06T04:54:12;9.00;99.90
9175;DHT22;54374;50.196;8.050;2022-08-06T04:56:40;9.00;99.90
9175;DHT22;54374;50.196;8.050;2022-08-06T04:59:08;8.90;99.90
9175;DHT22;54374;50.196;8.050;2022-08-06T05:01:37;8.90;99.90
9175;DHT22;54374;50.196;8.050;2022-08-06T05:04:04;9.10;99.90
9175;DHT22;54374;50.196;8.050;2022-08-06T05:06:38;12.60;99.90
9175;DHT22;54374;50.196;8.050;2022-08-06T05:09:11;9.30;99.90
9175;DHT22;54374;50.196;8.050;2022-08-06T05:11:41;9.40;99.90
9175;DHT22;54374;50.196;8.050;2022-08-06T05:14:13;9.60;99.90
9175;DHT22;54374;50.196;8.050;2022-08-06T05:16:45;9.70;99.90
9175;DHT22;54374;50.196;8.050;2022-08-06T05:19:17;9.70;99.90
9175;DHT22;54374;50.196;8.050;2022-08-06T05:21:47;9.80;99.90
9175;DHT22;54374;50.196;8.050;2022-08-06T05:24:15;9.90;99.90
9175;DHT22;54374;50.196;8.050;2022-08-06T05:26:43;9.90;99.90
9175;DHT22;54374;50.196;8.050;2022-08-06T05:29:10;10.00;99.90
9175;DHT22;54374;50.196;8.050;2022-08-06T05:31:38;10.10;99.90
9175;DHT22;54374;50.196;8.050;2022-08-06T05:34:11;10.40;99.90
9175;DHT22;54374;50.196;8.050;2022-08-06T05:36:38;10.50;99.90
9175;DHT22;54374;50.196;8.050;2022-08-06T05:39:05;10.70;99.90
9175;DHT22;54374;50.196;8.050;2022-08-06T05:41:33;10.80;99.90
9175;DHT22;54374;50.196;8.050;2022-08-06T05:44:01;10.80;99.90
9175;DHT22;54374;50.196;8.050;2022-08-06T05:46:33;11.00;99.90
9175;DHT22;54374;50.196;8.050;2022-08-06T05:49:03;11.10;99.90
9175;DHT22;54374;50.196;8.050;2022-08-06T05:51:38;11.20;99.90
9175;DHT22;54374;50.196;8.050;2022-08-06T05:54:12;11.20;99.90
9175;DHT22;54374;50.196;8.050;2022-08-06T05:56:43;11.10;99.90
9175;DHT22;54374;50.196;8.050;2022-08-06T05:59:18;11.00;99.90
9175;DHT22;54374;50.196;8.050;2022-08-06T06:01:46;11.10;99.90
9175;DHT22;54374;50.196;8.050;2022-08-06T06:04:18;11.10;99.90
9175;DHT22;54374;50.196;8.050;2022-08-06T06:06:48;11.30;99.90
9175;DHT22;54374;50.196;8.050;2022-08-06T06:09:15;11.50;99.90
9175;DHT22;54374;50.196;8.050;2022-08-06T06:11:43;11.70;99.90
9175;DHT22;54374;50.196;8.050;2022-08-06T06:14:27;12.00;99.90
9175;DHT22;54374;50.196;8.050;2022-08-06T06:19:52;12.20;99.90
9175;DHT22;54374;50.196;8.050;2022-08-06T06:22:27;12.40;99.90
9175;DHT22;54374;50.196;8.050;2022-08-06T06:24:59;12.60;99.90
9175;DHT22;54374;50.196;8.050;2022-08-06T06:27:33;12.70;99.90
9175;DHT22;54374;50.196;8.050;2022-08-06T06:30:04;12.90;99.90
9175;DHT22;54374;50.196;8.050;2022-08-06T06:32:42;13.00;99.90
9175;DHT22;54374;50.196;8.050;2022-08-06T06:35:29;13.10;99.90
9175;DHT22;54374;50.196;8.050;2022-08-06T06:38:16;13.20;99.90
9175;DHT22;54374;50.196;8.050;2022-08-06T06:40:51;13.50;99.90
9175;DHT22;54374;50.196;8.050;2022-08-06T06:43:22;13.60;99.90
9175;DHT22;54374;50.196;8.050;2022-08-06T06:46:00;13.90;99.90
9175;DHT22;54374;50.196;8.050;2022-08-06T06:48:35;14.10;99.90
9175;DHT22;54374;50.196;8.050;2022-08-06T06:51:05;14.30;99.90
9175;DHT22;54374;50.196;8.050;2022-08-06T06:53:40;14.40;99.90
9175;DHT22;54374;50.196;8.050;2022-08-06T06:56:09;14.60;99.90
9175;DHT22;54374;50.196;8.050;2022-08-06T06:58:40;14.70;99.90
9175;DHT22;54374;50.196;8.050;2022-08-06T07:01:10;14.70;99.90
9175;DHT22;54374;50.196;8.050;2022-08-06T07:03:39;14.80;99.90
9175;DHT22;54374;50.196;8.050;2022-08-06T07:06:07;14.90;99.90
9175;DHT22;54374;50.196;8.050;2022-08-06T07:08:41;15.00;99.90
9175;DHT22;54374;50.196;8.050;2022-08-06T07:11:13;15.10;99.90
9175;DHT22;54374;50.196;8.050;2022-08-06T07:13:44;15.10;99.90
9175;DHT22;54374;50.196;8.050;2022-08-06T07:16:14;15.30;99.90
9175;DHT22;54374;50.196;8.050;2022-08-06T07:18:43;15.50;99.90
9175;DHT22;54374;50.196;8.050;2022-08-06T07:21:13;15.50;99.90
9175;DHT22;54374;50.196;8.050;2022-08-06T07:23:43;15.60;99.90
9175;DHT22;54374;50.196;8.050;2022-08-06T07:26:13;15.70;99.90
9175;DHT22;54374;50.196;8.050;2022-08-06T07:28:42;15.70;99.90
9175;DHT22;54374;50.196;8.050;2022-08-06T07:31:10;15.60;99.90
9175;DHT22;54374;50.196;8.050;2022-08-06T07:33:39;15.60;99.90
9175;DHT22;54374;50.196;8.050;2022-08-06T07:36:07;15.70;99.90
9175;DHT22;54374;50.196;8.050;2022-08-06T07:38:40;15.80;99.90
9175;DHT22;54374;50.196;8.050;2022-08-06T07:41:09;15.90;99.90
9175;DHT22;54374;50.196;8.050;2022-08-06T07:43:41;16.10;99.90
9175;DHT22;54374;50.196;8.050;2022-08-06T07:46:12;16.40;99.90
9175;DHT22;54374;50.196;8.050;2022-08-06T07:48:45;16.70;99.90
9175;DHT22;54374;50.196;8.050;2022-08-06T07:51:13;16.90;99.90
9175;DHT22;54374;50.196;8.050;2022-08-06T07:53:44;17.10;99.90
9175;DHT22;54374;50.196;8.050;2022-08-06T07:56:13;17.20;99.90
9175;DHT22;54374;50.196;8.050;2022-08-06T07:58:42;17.40;99.90
9175;DHT22;54374;50.196;8.050;2022-08-06T08:01:09;17.40;99.90
9175;DHT22;54374;50.196;8.050;2022-08-06T08:03:37;17.00;99.90
9175;DHT22;54374;50.196;8.050;2022-08-06T08:06:24;17.00;99.90
9175;DHT22;54374;50.196;8.050;2022-08-06T08:08:54;17.00;99.90
9175;DHT22;54374;50.196;8.050;2022-08-06T08:11:24;16.90;99.90
9175;DHT22;54374;50.196;8.050;2022-08-06T08:13:54;16.80;99.90
9175;DHT22;54374;50.196;8.050;2022-08-06T08:16:21;16.80;99.90
9175;DHT22;54374;50.196;8.050;2022-08-06T08:18:48;16.70;99.90
9175;DHT22;54374;50.196;8.050;2022-08-06T08:21:16;16.90;99.90
9175;DHT22;54374;50.196;8.050;2022-08-06T08:23:44;16.90;99.90
9175;DHT22;54374;50.196;8.050;2022-08-06T08:26:14;16.90;99.90
9175;DHT22;54374;50.196;8.050;2022-08-06T08:28:43;16.90;99.90
9175;DHT22;54374;50.196;8.050;2022-08-06T08:31:11;16.90;99.90
9175;DHT22;54374;50.196;8.050;2022-08-06T08:33:39;16.90;99.90
9175;DHT22;54374;50.196;8.050;2022-08-06T08:36:07;16.90;99.90
9175;DHT22;54374;50.196;8.050;2022-08-06T08:38:34;17.10;99.90
9175;DHT22;54374;50.196;8.050;2022-08-06T08:41:04;17.10;99.90
9175;DHT22;54374;50.196;8.050;2022-08-06T08:43:37;17.00;99.90
9175;DHT22;54374;50.196;8.050;2022-08-06T08:46:08;16.90;99.90
9175;DHT22;54374;50.196;8.050;2022-08-06T08:48:36;16.80;99.90
9175;DHT22;54374;50.196;8.050;2022-08-06T08:51:04;16.90;99.90
9175;DHT22;54374;50.196;8.050;2022-08-06T08:53:36;16.80;99.90
9175;DHT22;54374;50.196;8.050;2022-08-06T08:56:05;16.90;99.90
9175;DHT22;54374;50.196;8.050;2022-08-06T08:58:33;17.10;99.90
9175;DHT22;54374;50.196;8.050;2022-08-06T09:01:06;17.20;99.90
9175;DHT22;54374;50.196;8.050;2022-08-06T09:03:38;17.20;99.90
9175;DHT22;54374;50.196;8.050;2022-08-06T09:06:06;17.10;99.90
9175;DHT22;54374;50.196;8.050;2022-08-06T09:08:34;17.10;99.90
9175;DHT22;54374;50.196;8.050;2022-08-06T09:11:03;17.20;99.90
9175;DHT22;54374;50.196;8.050;2022-08-06T09:13:31;17.20;99.90
9175;DHT22;54374;50.196;8.050;2022-08-06T09:15:58;17.40;99.90
9175;DHT22;54374;50.196;8.050;2022-08-06T09:18:27;17.50;99.90
9175;DHT22;54374;50.196;8.050;2022-08-06T09:20:56;17.80;99.90
9175;DHT22;54374;50.196;8.050;2022-08-06T09:23:28;17.80;99.90
9175;DHT22;54374;50.196;8.050;2022-08-06T09:25:55;17.80;99.90
9175;DHT22;54374;50.196;8.050;2022-08-06T09:28:32;17.70;99.90
9175;DHT22;54374;50.196;8.050;2022-08-06T09:31:02;17.80;99.90
9175;DHT22;54374;50.196;8.050;2022-08-06T09:33:31;17.90;99.90
9175;DHT22;54374;50.196;8.050;2022-08-06T09:36:02;17.90;99.90
9175;DHT22;54374;50.196;8.050;2022-08-06T09:38:30;17.90;99.90
9175;DHT22;54374;50.196;8.050;2022-08-06T09:41:06;17.90;99.90
9175;DHT22;54374;50.196;8.050;2022-08-06T09:43:34;18.00;99.90
9175;DHT22;54374;50.196;8.050;2022-08-06T09:46:01;18.10;99.90
9175;DHT22;54374;50.196;8.050;2022-08-06T09:48:28;18.20;99.90
9175;DHT22;54374;50.196;8.050;2022-08-06T09:50:55;18.30;99.90
9175;DHT22;54374;50.196;8.050;2022-08-06T09:53:24;18.20;99.90
9175;DHT22;54374;50.196;8.050;2022-08-06T09:55:53;18.20;99.90
9175;DHT22;54374;50.196;8.050;2022-08-06T09:58:32;18.20;99.90
9175;DHT22;54374;50.196;8.050;2022-08-06T10:01:14;18.00;99.90
9175;DHT22;54374;50.196;8.050;2022-08-06T10:03:43;17.80;99.90
9175;DHT22;54374;50.196;8.050;2022-08-06T10:06:14;17.70;99.90
9175;DHT22;54374;50.196;8.050;2022-08-06T10:08:44;17.80;99.90
9175;DHT22;54374;50.196;8.050;2022-08-06T10:11:11;17.90;99.90
9175;DHT22;54374;50.196;8.050;2022-08-06T10:13:46;18.20;99.90
9175;DHT22;54374;50.196;8.050;2022-08-06T10:16:16;18.50;99.90
9175;DHT22;54374;50.196;8.050;2022-08-06T10:18:44;18.80;99.90
9175;DHT22;54374;50.196;8.050;2022-08-06T10:21:17;18.90;99.90
9175;DHT22;54374;50.196;8.050;2022-08-06T10:23:49;18.70;99.90
9175;DHT22;54374;50.196;8.050;2022-08-06T10:26:18;19.00;99.90
9175;DHT22;54374;50.196;8.050;2022-08-06T10:28:48;19.00;99.90
9175;DHT22;54374;50.196;8.050;2022-08-06T10:31:16;19.00;99.90
9175;DHT22;54374;50.196;8.050;2022-08-06T10:33:47;18.80;99.90
9175;DHT22;54374;50.196;8.050;2022-08-06T10:36:18;18.80;99.90
9175;DHT22;54374;50.196;8.050;2022-08-06T10:38:50;18.70;99.90
9175;DHT22;54374;50.196;8.050;2022-08-06T10:41:20;18.70;99.90
9175;DHT22;54374;50.196;8.050;2022-08-06T10:43:49;18.90;99.90
9175;DHT22;54374;50.196;8.050;2022-08-06T10:46:17;19.20;99.90
9175;DHT22;54374;50.196;8.050;2022-08-06T10:48:46;19.50;99.90
9175;DHT22;54374;50.196;8.050;2022-08-06T10:51:14;19.50;99.90
9175;DHT22;54374;50.196;8.050;2022-08-06T10:53:42;19.40;99.90
9175;DHT22;54374;50.196;8.050;2022-08-06T10:56:13;19.20;99.90
9175;DHT22;54374;50.196;8.050;2022-08-06T10:58:41;19.00;99.90
9175;DHT22;54374;50.196;8.050;2022-08-06T11:01:10;18.90;99.90
9175;DHT22;54374;50.196;8.050;2022-08-06T11:03:54;18.90;99.90
9175;DHT22;54374;50.196;8.050;2022-08-06T11:06:36;19.00;99.90
9175;DHT22;54374;50.196;8.050;2022-08-06T11:09:23;19.10;99.90
9175;DHT22;54374;50.196;8.050;2022-08-06T11:12:10;19.10;99.90
9175;DHT22;54374;50.196;8.050;2022-08-06T11:14:40;19.20;99.90
9175;DHT22;54374;50.196;8.050;2022-08-06T11:17:08;19.20;99.90
9175;DHT22;54374;50.196;8.050;2022-08-06T11:19:40;19.20;99.90
9175;DHT22;54374;50.196;8.050;2022-08-06T11:22:37;19.30;99.90
9175;DHT22;54374;50.196;8.050;2022-08-06T11:25:06;19.20;99.90
9175;DHT22;54374;50.196;8.050;2022-08-06T11:27:52;19.20;99.90
9175;DHT22;54374;50.196;8.050;2022-08-06T11:30:23;19.30;99.10
9175;DHT22;54374;50.196;8.050;2022-08-06T11:33:02;19.30;98.80
9175;DHT22;54374;50.196;8.050;2022-08-06T11:35:43;19.40;98.60
9175;DHT22;54374;50.196;8.050;2022-08-06T11:38:13;19.50;99.40
9175;DHT22;54374;50.196;8.050;2022-08-06T11:40:56;19.50;97.90
9175;DHT22;54374;50.196;8.050;2022-08-06T11:43:45;19.50;97.30
9175;DHT22;54374;50.196;8.050;2022-08-06T11:46:21;19.50;97.70
9175;DHT22;54374;50.196;8.050;2022-08-06T11:49:15;19.60;98.30
9175;DHT22;54374;50.196;8.050;2022-08-06T11:51:44;19.60;98.60
9175;DHT22;54374;50.196;8.050;2022-08-06T11:54:13;19.60;98.10
9175;DHT22;54374;50.196;8.050;2022-08-06T11:57:17;19.60;98.00
9175;DHT22;54374;50.196;8.050;2022-08-06T12:00:00;19.70;98.10
9175;DHT22;54374;50.196;8.050;2022-08-06T12:02:53;19.70;97.30
9175;DHT22;54374;50.196;8.050;2022-08-06T12:05:34;19.70;97.70
9175;DHT22;54374;50.196;8.050;2022-08-06T12:08:26;19.80;97.70
9175;DHT22;54374;50.196;8.050;2022-08-06T12:11:22;19.80;97.40
9175;DHT22;54374;50.196;8.050;2022-08-06T12:13:51;19.80;98.10
9175;DHT22;54374;50.196;8.050;2022-08-06T12:16:37;19.90;99.40
9175;DHT22;54374;50.196;8.050;2022-08-06T12:19:11;20.10;98.60
9175;DHT22;54374;50.196;8.050;2022-08-06T12:21:42;20.20;97.20
9175;DHT22;54374;50.196;8.050;2022-08-06T12:24:11;20.20;96.90
9175;DHT22;54374;50.196;8.050;2022-08-06T12:26:39;20.20;96.00
9175;DHT22;54374;50.196;8.050;2022-08-06T12:29:07;20.00;96.80
9175;DHT22;54374;50.196;8.050;2022-08-06T12:31:37;19.70;96.20
9175;DHT22;54374;50.196;8.050;2022-08-06T12:34:05;19.50;97.00
9175;DHT22;54374;50.196;8.050;2022-08-06T12:36:34;19.60;97.10
9175;DHT22;54374;50.196;8.050;2022-08-06T12:39:04;19.80;96.70
9175;DHT22;54374;50.196;8.050;2022-08-06T12:41:37;19.90;95.60
9175;DHT22;54374;50.196;8.050;2022-08-06T12:44:10;19.90;96.40
9175;DHT22;54374;50.196;8.050;2022-08-06T12:46:40;19.90;96.60
9175;DHT22;54374;50.196;8.050;2022-08-06T12:49:09;19.80;96.10
9175;DHT22;54374;50.196;8.050;2022-08-06T12:51:36;19.90;95.80
9175;DHT22;54374;50.196;8.050;2022-08-06T12:54:06;19.90;94.80
9175;DHT22;54374;50.196;8.050;2022-08-06T12:56:37;20.00;96.60
9175;DHT22;54374;50.196;8.050;2022-08-06T12:59:08;20.10;96.90
9175;DHT22;54374;50.196;8.050;2022-08-06T13:01:36;20.30;96.10
9175;DHT22;54374;50.196;8.050;2022-08-06T13:04:07;20.40;95.20
9175;DHT22;54374;50.196;8.050;2022-08-06T13:06:38;20.60;95.90
9175;DHT22;54374;50.196;8.050;2022-08-06T13:09:06;20.80;96.30
9175;DHT22;54374;50.196;8.050;2022-08-06T13:11:34;21.00;96.00
9175;DHT22;54374;50.196;8.050;2022-08-06T13:14:13;21.10;95.10
9175;DHT22;54374;50.196;8.050;2022-08-06T13:16:42;21.20;94.80
9175;DHT22;54374;50.196;8.050;2022-08-06T13:19:12;21.30;94.00
9175;DHT22;54374;50.196;8.050;2022-08-06T13:21:41;21.30;91.90
9175;DHT22;54374;50.196;8.050;2022-08-06T13:24:09;21.30;93.30
9175;DHT22;54374;50.196;8.050;2022-08-06T13:26:51;21.30;92.60
9175;DHT22;54374;50.196;8.050;2022-08-06T13:29:20;21.50;92.40
9175;DHT22;54374;50.196;8.050;2022-08-06T13:32:02;21.50;92.20
9175;DHT22;54374;50.196;8.050;2022-08-06T13:34:44;21.50;92.80
9175;DHT22;54374;50.196;8.050;2022-08-06T13:37:11;21.50;94.70
9175;DHT22;54374;50.196;8.050;2022-08-06T13:39:48;21.50;95.20
9175;DHT22;54374;50.196;8.050;2022-08-06T13:42:16;21.50;96.30
9175;DHT22;54374;50.196;8.050;2022-08-06T13:44:44;21.40;94.00
9175;DHT22;54374;50.196;8.050;2022-08-06T13:47:13;21.30;92.50
9175;DHT22;54374;50.196;8.050;2022-08-06T13:49:44;21.20;91.80
9175;DHT22;54374;50.196;8.050;2022-08-06T13:52:11;21.00;93.20
9175;DHT22;54374;50.196;8.050;2022-08-06T13:54:38;21.10;93.00
9175;DHT22;54374;50.196;8.050;2022-08-06T13:57:06;21.00;92.70
9175;DHT22;54374;50.196;8.050;2022-08-06T13:59:33;21.20;92.90
9175;DHT22;54374;50.196;8.050;2022-08-06T14:02:03;21.30;92.20
9175;DHT22;54374;50.196;8.050;2022-08-06T14:04:30;21.30;91.00
9175;DHT22;54374;50.196;8.050;2022-08-06T14:06:59;21.20;91.90
9175;DHT22;54374;50.196;8.050;2022-08-06T14:09:29;21.20;92.00
9175;DHT22;54374;50.196;8.050;2022-08-06T14:11:58;21.20;92.40
9175;DHT22;54374;50.196;8.050;2022-08-06T14:14:28;21.20;94.70
9175;DHT22;54374;50.196;8.050;2022-08-06T14:16:58;21.30;92.20
9175;DHT22;54374;50.196;8.050;2022-08-06T14:19:25;21.40;92.60
9175;DHT22;54374;50.196;8.050;2022-08-06T14:21:53;21.40;92.90
9175;DHT22;54374;50.196;8.050;2022-08-06T14:24:22;21.20;95.30
9175;DHT22;54374;50.196;8.050;2022-08-06T14:26:51;21.00;96.30
9175;DHT22;54374;50.196;8.050;2022-08-06T14:29:18;20.90;94.70
9175;DHT22;54374;50.196;8.050;2022-08-06T14:31:45;20.90;93.80
9175;DHT22;54374;50.196;8.050;2022-08-06T14:34:12;21.00;93.70
9175;DHT22;54374;50.196;8.050;2022-08-06T14:36:39;20.90;93.50
9175;DHT22;54374;50.196;8.050;2022-08-06T14:39:06;20.80;95.40
9175;DHT22;54374;50.196;8.050;2022-08-06T14:41:35;20.70;94.30
9175;DHT22;54374;50.196;8.050;2022-08-06T14:44:20;20.70;92.50
9175;DHT22;54374;50.196;8.050;2022-08-06T14:47:04;20.80;91.70
9175;DHT22;54374;50.196;8.050;2022-08-06T14:49:33;20.90;92.30
9175;DHT22;54374;50.196;8.050;2022-08-06T14:52:01;20.90;94.00
9175;DHT22;54374;50.196;8.050;2022-08-06T14:54:29;20.80;94.80
9175;DHT22;54374;50.196;8.050;2022-08-06T14:56:58;20.80;93.10
9175;DHT22;54374;50.196;8.050;2022-08-06T14:59:27;21.00;91.80
9175;DHT22;54374;50.196;8.050;2022-08-06T15:01:54;21.10;91.40
9175;DHT22;54374;50.196;8.050;2022-08-06T15:04:21;21.20;92.10
9175;DHT22;54374;50.196;8.050;2022-08-06T15:06:49;21.20;91.50
9175;DHT22;54374;50.196;8.050;2022-08-06T15:09:16;21.20;90.40
9175;DHT22;54374;50.196;8.050;2022-08-06T15:11:43;21.30;91.50
9175;DHT22;54374;50.196;8.050;2022-08-06T15:14:11;21.30;91.40
9175;DHT22;54374;50.196;8.050;2022-08-06T15:16:40;21.20;90.60
9175;DHT22;54374;50.196;8.050;2022-08-06T15:19:07;21.00;91.90
9175;DHT22;54374;50.196;8.050;2022-08-06T15:21:35;21.00;92.00
9175;DHT22;54374;50.196;8.050;2022-08-06T15:24:02;21.00;91.00
9175;DHT22;54374;50.196;8.050;2022-08-06T15:26:29;21.00;90.90
9175;DHT22;54374;50.196;8.050;2022-08-06T15:28:56;21.00;90.50
9175;DHT22;54374;50.196;8.050;2022-08-06T15:31:25;21.10;91.30
9175;DHT22;54374;50.196;8.050;2022-08-06T15:33:52;21.10;90.50
9175;DHT22;54374;50.196;8.050;2022-08-06T15:36:21;21.20;90.20
9175;DHT22;54374;50.196;8.050;2022-08-06T15:38:48;21.30;90.40
9175;DHT22;54374;50.196;8.050;2022-08-06T15:41:17;21.30;90.00
9175;DHT22;54374;50.196;8.050;2022-08-06T15:43:46;21.30;91.20
9175;DHT22;54374;50.196;8.050;2022-08-06T15:46:13;21.30;90.60
9175;DHT22;54374;50.196;8.050;2022-08-06T15:48:44;21.40;93.00
9175;DHT22;54374;50.196;8.050;2022-08-06T15:51:12;21.50;91.20
9175;DHT22;54374;50.196;8.050;2022-08-06T15:53:39;21.60;90.20
9175;DHT22;54374;50.196;8.050;2022-08-06T15:56:06;21.80;90.70
9175;DHT22;54374;50.196;8.050;2022-08-06T15:58:33;21.80;92.20
9175;DHT22;54374;50.196;8.050;2022-08-06T16:01:00;22.00;94.50
9175;DHT22;54374;50.196;8.050;2022-08-06T16:03:28;22.40;96.20
9175;DHT22;54374;50.196;8.050;2022-08-06T16:05:56;22.80;95.80
9175;DHT22;54374;50.196;8.050;2022-08-06T16:08:23;23.10;94.10
9175;DHT22;54374;50.196;8.050;2022-08-06T16:10:51;23.30;92.30
9175;DHT22;54374;50.196;8.050;2022-08-06T16:13:18;23.50;96.70